Lindenberg, Germany

7:51 AM CEST on July 10, 2014 (GMT +0200)
Bootshaus (IBRANDEN36) Elev 148 ft | 52.17 °N, 14.25 °E | Change Station

Current weather conditions updated 12 seconds ago

Mostly Cloudy
Mostly Cloudy
69.8 °F
Feels Like 69.8 °F
N
4.3
Wind Variable Wind from NW
Gusts 7.4 mph

Today is forecast to be Much Cooler than yesterday. Afternoon thunderstorms.

Today
High -- | Low -- °F
--% Chance of Precip.
Yesterday
High -- | Low -- °F
Precip. -- in
4:54 AM 9:22 PM
Waxing Gibbous, 93% visible
Pressure 29.71 in
Visibility 1.3 miles
Clouds Mostly Cloudy 100 ft
Mostly Cloudy 200 ft
Dew Point 67 °F
Humidity 90%
Rainfall 0.04 in
Snow Depth Not available.
UV 2.0 out of 12
Pollen Not available.
Air Quality Not available.
Flu Activity Not available.
METAR EDDB 100520Z 34004KT 2100 R07L/0800VP2000U R07R/0550V0900U BR BKN001 BKN002 18/18 Q1006 BECMG 4000 BR SCT002

More Conditions Fewer Conditions

Pressure 29.71 in
Visibility 1.3 miles
Clouds Mostly Cloudy 100 ft
Mostly Cloudy 200 ft
Dew Point 67 °F
Humidity 90%
Rainfall 0.04 in
Snow Depth Not available.
UV 2.0 out of 12
Pollen Not available.
Air Quality Not available.
Flu Activity Not available.
METAR EDDB 100520Z 34004KT 2100 R07L/0800VP2000U R07R/0550V0900U BR BKN001 BKN002 18/18 Q1006 BECMG 4000 BR SCT002

More Conditions Fewer Conditions

10-Day Weather Forecast

Almanac

Astronomy

Jul. 10, 2014 Rise Set
Actual Time 4:54 AM CEST 9:22 PM CEST
Civil Twilight 4:07 AM CEST 10:09 PM CEST
Nautical Twilight 2:54 AM CEST 11:21 PM CEST
Astronomical Twilight 1:41 AM CEST 12:36 AM CEST
Moon 7:09 PM CEST 2:59 AM CEST
Length of Visible Light 18h 02m
Length of Day
16h 28m
Tomorrow will be 1m 54s shorter.
Waxing Gibbous, 93% of the Moon is Illuminated
Today
Waxing Gibbous
Jul 12
Full
Jul 18
Last Quarter
Jul 26
New
Aug 3
First Quarter

Yesterday's Extremes

Country Highs Country Lows

Community

WunderPhotos

Upload Photos

1,732,075 photos uploaded!

Nearby

Snow Depth

Not available.

Earthquake Activity

City Distance Mag. Time & Date
No recent earthquake activity has been reported nearby.
Minimum magnitude displayed is 2.5.

Coastal Water Temperatures

Place Temperature
No Stations Reporting

Nearby Weather Stations

Station Location Temp. Dew Point Humidity Wind Precip. Elev Updated Type
Bootshaus, Beeskow 69.8 °F 67 °F 90% NW  at  4.3 mph 0.00 in / hr 148 ft 7:50 AM CEST Rapid Fire
Heidesee 64.2 °F 63 °F 97% SW  at  0.0 mph 0.00 in / hr 154 ft 6:33 AM CEST Rapid Fire
Boossen inland, Frankfurt (Oder) 68.5 °F 65 °F 89% NNW  at  0.4 mph 0.00 in / hr 240 ft 7:50 AM CEST Rapid Fire
Frankfurt (Oder) 67.5 °F 66 °F 94% North  at  3.5 mph 0.00 in / hr 213 ft 7:49 AM CEST Normal
Berlin Rahnsdorf 66.6 °F 64 °F 93% SW  at  0.0 mph 0.00 in / hr 112 ft 7:50 AM CEST Normal
Eisenhüttenstadt 68.7 °F 64 °F 84% North  at  1.8 mph 0.00 in / hr 128 ft 7:50 AM CEST Rapid Fire

Show More Stations Show Fewer Stations